Time;durP1;ratioP1;P1;durP2;ratioP2;P2;SDS_P1;SDS_P2;PMS_P1;PMS_P2;Temp;Humidity;BMP_temperature;BMP_pressure;BME280_temperature;BME280_humidity;BME280_pressure;Samples;Min_cycle;Max_cycle;Signal;HPM_P1;HPM_P2
2023/08/07 00:03:53;;;;;;;1.10;0.70;;;23.70;97.00;;;;;;4948559;29;20565;-90
2023/08/07 00:06:28;;;;;;;1.13;0.80;;;23.70;96.90;;;;;;4955338;29;20439;-89
2023/08/07 00:09:20;;;;;;;1.20;0.80;;;23.80;97.00;;;;;;4955490;29;20419;-90
2023/08/07 00:11:56;;;;;;;1.07;0.80;;;23.70;96.90;;;;;;5061183;23;20489;-89
2023/08/07 00:14:25;;;;;;;1.00;0.77;;;23.70;96.80;;;;;;4974335;29;20513;-89
2023/08/07 00:19:20;;;;;;;1.00;0.80;;;23.70;96.90;;;;;;5062851;23;20479;-89
2023/08/07 00:21:56;;;;;;;1.00;0.77;;;23.70;96.90;;;;;;4943631;23;20227;-89
2023/08/07 00:29:43;;;;;;;1.10;0.80;;;23.70;96.90;;;;;;3305540;27;20481;-89
2023/08/07 00:32:14;;;;;;;1.40;0.70;;;23.90;97.10;;;;;;4955382;29;20434;-89
2023/08/07 00:34:43;;;;;;;1.03;0.80;;;23.70;96.90;;;;;;4968723;23;20484;-89
2023/08/07 00:37:15;;;;;;;1.20;0.80;;;23.70;97.00;;;;;;4975375;29;20450;-89
2023/08/07 00:39:43;;;;;;;1.00;0.80;;;23.80;97.00;;;;;;4973879;28;20449;-89
2023/08/07 00:42:13;;;;;;;1.10;0.90;;;23.70;97.00;;;;;;4956664;29;20449;-90
2023/08/07 00:44:43;;;;;;;1.10;0.70;;;23.70;97.40;;;;;;4973787;29;20498;-89
2023/08/07 00:47:14;;;;;;;1.00;0.70;;;23.70;97.00;;;;;;4973166;29;20493;-89
2023/08/07 00:49:59;;;;;;;1.00;0.70;;;23.70;97.00;;;;;;5069624;23;20474;-89
2023/08/07 00:52:33;;;;;;;1.30;0.80;;;23.80;97.00;;;;;;4979633;23;20601;-89
2023/08/07 00:55:32;;;;;;;1.40;0.80;;;23.70;96.90;;;;;;4957498;23;20488;-89
2023/08/07 00:58:04;;;;;;;1.20;0.80;;;23.70;97.00;;;;;;4951925;29;20455;-89
2023/08/07 01:00:31;;;;;;;1.10;0.77;;;23.70;96.90;;;;;;4979320;23;20493;-89
2023/08/07 01:02:59;;;;;;;1.33;0.87;;;23.70;97.00;;;;;;4971914;29;20478;-89
2023/08/07 01:05:31;;;;;;;2.43;0.90;;;23.70;96.90;;;;;;4972444;29;20451;-89
2023/08/07 01:07:59;;;;;;;1.10;0.70;;;23.70;96.90;;;;;;4978815;23;20558;-89
2023/08/07 01:10:38;;;;;;;1.10;0.80;;;23.70;96.90;;;;;;4997711;23;20486;-89
2023/08/07 01:13:14;;;;;;;1.00;0.80;;;23.70;96.90;;;;;;4990982;28;20965;-89
2023/08/07 01:15:42;;;;;;;0.90;0.60;;;23.70;96.90;;;;;;4989962;28;20441;-89
2023/08/07 01:18:12;;;;;;;1.57;0.63;;;23.70;97.30;;;;;;4990346;28;20437;-89
2023/08/07 01:20:43;;;;;;;1.27;0.80;;;23.70;96.90;;;;;;4989933;28;20436;-89
2023/08/07 01:23:12;;;;;;;1.70;0.77;;;23.70;97.00;;;;;;4990205;28;20544;-89
2023/08/07 01:25:41;;;;;;;1.20;0.90;;;23.70;96.90;;;;;;4990966;28;20448;-89
2023/08/07 01:28:16;;;;;;;1.40;0.90;;;23.70;97.00;;;;;;4989786;28;20512;-89
2023/08/07 01:30:47;;;;;;;2.20;0.90;;;23.70;96.90;;;;;;4990260;28;20516;-89
2023/08/07 01:33:32;;;;;;;1.20;0.80;;;23.70;96.90;;;;;;4991383;28;20441;-89
2023/08/07 01:36:11;;;;;;;1.20;0.80;;;23.70;97.00;;;;;;4998793;23;20474;-89
2023/08/07 01:38:49;;;;;;;1.00;0.77;;;23.70;97.00;;;;;;5046948;23;20477;-89
2023/08/07 01:41:26;;;;;;;1.00;0.70;;;23.70;96.90;;;;;;4999269;23;20498;-89
2023/08/07 01:44:00;;;;;;;1.20;0.80;;;23.60;96.90;;;;;;4996347;23;20497;-90
2023/08/07 01:46:27;;;;;;;1.10;1.00;;;23.60;97.00;;;;;;4991758;28;20445;-89
2023/08/07 01:48:54;;;;;;;1.17;0.80;;;23.60;96.90;;;;;;4991545;28;20461;-89
2023/08/07 01:51:28;;;;;;;1.03;0.73;;;23.60;97.00;;;;;;4992007;28;20448;-90
2023/08/07 01:53:56;;;;;;;1.03;0.67;;;23.70;96.90;;;;;;5034329;23;20520;-89
2023/08/07 01:56:26;;;;;;;1.10;0.83;;;23.60;96.90;;;;;;4992594;28;20457;-89
2023/08/07 02:01:30;;;;;;;1.20;0.80;;;23.70;96.90;;;;;;5078237;23;20473;-89
2023/08/07 02:04:04;;;;;;;1.10;0.70;;;23.60;96.90;;;;;;5048715;23;20250;-89
2023/08/07 02:06:33;;;;;;;1.00;0.70;;;23.60;96.80;;;;;;5017678;23;20512;-89
2023/08/07 02:11:48;;;;;;;1.13;0.77;;;23.60;96.80;;;;;;5079435;23;20514;-89
2023/08/07 02:14:15;;;;;;;1.10;0.70;;;23.70;96.90;;;;;;4994334;28;20441;-89
2023/08/07 02:17:12;;;;;;;1.10;0.80;;;23.60;96.80;;;;;;5000106;23;20837;-89
2023/08/07 02:19:39;;;;;;;1.00;0.70;;;23.60;96.80;;;;;;5055574;23;20493;-89
2023/08/07 02:22:10;;;;;;;1.00;0.70;;;23.60;96.90;;;;;;5009322;23;20496;-89
2023/08/07 02:24:40;;;;;;;1.20;0.70;;;23.60;96.90;;;;;;4994217;28;20434;-89
2023/08/07 02:27:10;;;;;;;1.20;0.70;;;23.60;96.80;;;;;;5000261;23;20494;-89
2023/08/07 02:29:37;;;;;;;1.10;0.70;;;23.60;96.90;;;;;;5080948;23;20552;-89
2023/08/07 02:40:30;;;;;;;1.00;0.73;;;23.60;96.90;;;;;;1377107;26;20474;-89
2023/08/07 02:42:59;;;;;;;1.17;0.90;;;23.60;96.90;;;;;;4967491;23;20505;-89
2023/08/07 02:50:42;;;;;;;1.07;0.83;;;23.60;96.90;;;;;;4963703;23;20524;-89
2023/08/07 02:53:11;;;;;;;0.97;0.70;;;23.60;96.90;;;;;;4967166;23;20473;-90
2023/08/07 02:55:38;;;;;;;1.33;1.00;;;23.60;96.90;;;;;;4954718;29;20446;-90
2023/08/07 02:58:06;;;;;;;1.00;0.70;;;23.60;96.80;;;;;;4976198;29;20438;-90
2023/08/07 03:00:39;;;;;;;1.00;0.70;;;23.60;97.20;;;;;;4977006;29;20451;-90
2023/08/07 03:03:26;;;;;;;1.00;0.70;;;23.60;96.70;;;;;;5072493;23;20474;-90
2023/08/07 03:05:56;;;;;;;1.10;0.70;;;23.60;96.70;;;;;;4986867;23;20488;-90
2023/08/07 03:08:25;;;;;;;1.00;0.70;;;23.60;96.80;;;;;;4986692;23;20485;-90
2023/08/07 03:10:53;;;;;;;1.60;0.97;;;23.60;97.30;;;;;;4963988;29;20433;-89
2023/08/07 03:13:24;;;;;;;1.00;0.70;;;23.60;96.90;;;;;;4973089;29;20505;-90
2023/08/07 03:18:21;;;;;;;1.00;0.80;;;23.60;96.80;;;;;;4978700;23;20486;-90
2023/08/07 03:20:58;;;;;;;1.73;0.80;;;23.60;96.90;;;;;;4973051;28;20222;-90
2023/08/07 03:23:50;;;;;;;1.03;0.80;;;23.60;96.80;;;;;;4992608;23;20516;-89
2023/08/07 03:26:17;;;;;;;1.10;0.70;;;23.60;96.80;;;;;;4982909;23;20525;-90
2023/08/07 03:28:54;;;;;;;1.13;0.77;;;23.60;96.90;;;;;;5000490;23;20494;-90
2023/08/07 03:31:27;;;;;;;1.00;0.73;;;23.60;96.80;;;;;;4977543;29;20445;-90
2023/08/07 03:33:55;;;;;;;1.20;0.90;;;23.60;96.80;;;;;;5064948;23;20512;-90
2023/08/07 03:36:23;;;;;;;1.00;0.77;;;23.80;96.90;;;;;;4976924;29;20450;-90
2023/08/07 03:38:54;;;;;;;1.20;0.80;;;23.60;96.80;;;;;;5109350;23;20484;-90
2023/08/07 03:41:26;;;;;;;1.00;0.70;;;23.60;96.80;;;;;;4973297;28;20441;-90
2023/08/07 03:46:36;;;;;;;1.13;0.70;;;23.60;96.90;;;;;;1369818;27;20478;-89
2023/08/07 03:49:06;;;;;;;1.00;0.70;;;23.60;96.80;;;;;;4953722;29;20498;-89
2023/08/07 03:51:34;;;;;;;0.90;0.63;;;23.50;96.80;;;;;;4954321;29;20533;-89
2023/08/07 03:54:07;;;;;;;1.00;0.70;;;23.60;96.80;;;;;;4974640;23;20466;-89
2023/08/07 03:56:37;;;;;;;1.10;0.80;;;23.50;96.80;;;;;;5073159;23;20500;-89
2023/08/07 03:59:05;;;;;;;1.40;0.80;;;23.50;97.10;;;;;;4977801;23;20512;-89
2023/08/07 04:01:37;;;;;;;1.00;0.70;;;23.60;96.80;;;;;;4972486;29;20442;-89
2023/08/07 04:04:04;;;;;;;1.17;0.80;;;23.60;96.80;;;;;;4972218;29;20434;-89
2023/08/07 04:06:32;;;;;;;1.10;0.77;;;23.50;96.80;;;;;;4972784;29;20443;-89
2023/08/07 04:11:28;;;;;;;1.10;0.80;;;23.50;96.80;;;;;;4972206;23;20498;-89
2023/08/07 04:14:00;;;;;;;1.47;1.00;;;23.50;96.80;;;;;;4987999;23;20478;-89
2023/08/07 04:16:27;;;;;;;1.00;0.70;;;23.60;96.70;;;;;;4970572;29;20434;-89
2023/08/07 04:19:01;;;;;;;1.00;0.70;;;23.60;96.80;;;;;;4972367;28;20476;-89
2023/08/07 04:21:34;;;;;;;1.97;0.80;;;23.50;96.70;;;;;;4972571;29;20512;-89
2023/08/07 04:24:10;;;;;;;1.00;0.70;;;23.50;96.80;;;;;;4973069;29;20841;-89
2023/08/07 04:26:37;;;;;;;1.00;0.80;;;23.70;96.80;;;;;;5029578;23;20556;-89
2023/08/07 04:31:52;;;;;;;1.40;0.93;;;23.50;96.80;;;;;;4950382;29;20498;-89
2023/08/07 04:34:21;;;;;;;1.03;0.70;;;23.50;97.10;;;;;;4953752;29;20542;-89
2023/08/07 04:36:53;;;;;;;1.10;0.80;;;23.50;96.60;;;;;;4983862;23;20489;-89
2023/08/07 04:39:24;;;;;;;1.10;0.80;;;23.50;96.60;;;;;;4980960;23;20507;-88
2023/08/07 04:44:34;;;;;;;1.10;0.80;;;23.50;96.70;;;;;;4932509;29;20492;-89
2023/08/07 04:47:04;;;;;;;1.17;0.70;;;23.50;96.60;;;;;;5034684;23;20547;-89
2023/08/07 04:49:33;;;;;;;1.23;0.87;;;23.50;96.70;;;;;;4954747;29;20921;-89
2023/08/07 04:52:08;;;;;;;1.00;0.70;;;23.50;96.70;;;;;;4961530;23;20467;-89
2023/08/07 04:54:45;;;;;;;1.10;0.80;;;23.50;96.60;;;;;;4909713;29;20464;-89
2023/08/07 04:57:16;;;;;;;1.00;0.73;;;23.50;96.70;;;;;;4950635;23;20850;-89
2023/08/07 04:59:53;;;;;;;1.23;0.90;;;23.50;96.60;;;;;;4990024;28;20516;-89
2023/08/07 05:02:25;;;;;;;1.20;0.90;;;23.50;96.60;;;;;;4989628;28;20445;-88
2023/08/07 05:05:00;;;;;;;1.60;0.90;;;23.50;96.70;;;;;;4991904;28;20467;-89
2023/08/07 05:07:28;;;;;;;1.10;0.80;;;23.50;96.80;;;;;;4989157;28;20437;-89
2023/08/07 05:09:59;;;;;;;1.10;0.77;;;23.50;96.70;;;;;;4990920;28;20531;-89
2023/08/07 05:12:29;;;;;;;1.13;1.00;;;23.50;96.70;;;;;;4990126;28;20452;-89
2023/08/07 05:15:13;;;;;;;1.17;0.83;;;23.50;96.70;;;;;;4989412;28;20468;-89
2023/08/07 05:17:47;;;;;;;1.10;0.80;;;23.50;96.70;;;;;;4990343;28;20446;-89
2023/08/07 05:20:17;;;;;;;1.17;0.90;;;23.50;96.70;;;;;;4964439;28;20462;-89
2023/08/07 05:22:47;;;;;;;1.20;0.83;;;23.50;96.70;;;;;;4975211;28;20473;-89
2023/08/07 05:25:15;;;;;;;1.10;0.90;;;23.50;96.70;;;;;;4990958;28;20461;-89
2023/08/07 05:27:44;;;;;;;2.17;1.20;;;23.50;96.70;;;;;;4985065;28;20451;-89
2023/08/07 05:30:14;;;;;;;1.50;0.80;;;23.50;96.60;;;;;;4990496;23;20539;-89
2023/08/07 05:32:41;;;;;;;2.20;0.70;;;23.50;96.70;;;;;;4946119;29;20490;-89
2023/08/07 05:35:12;;;;;;;1.10;0.80;;;23.50;96.70;;;;;;4947747;29;20540;-89
2023/08/07 05:37:40;;;;;;;1.57;0.90;;;23.50;96.60;;;;;;5010287;23;20488;-89
2023/08/07 05:40:13;;;;;;;1.00;0.80;;;23.40;96.60;;;;;;4950247;29;20463;-89
2023/08/07 05:42:41;;;;;;;2.10;0.90;;;23.50;96.70;;;;;;4969657;29;20604;-89
2023/08/07 05:45:11;;;;;;;1.10;0.80;;;23.50;96.70;;;;;;4969582;29;20440;-89
2023/08/07 05:47:38;;;;;;;1.30;0.77;;;23.50;96.70;;;;;;4969348;28;20896;-89
2023/08/07 05:50:13;;;;;;;1.73;0.83;;;23.50;96.70;;;;;;4968650;29;20503;-89
2023/08/07 05:52:41;;;;;;;1.20;1.00;;;23.40;96.70;;;;;;4966889;29;20874;-89
2023/08/07 05:55:15;;;;;;;1.00;0.80;;;23.40;96.70;;;;;;4967637;29;20718;-89
2023/08/07 05:57:43;;;;;;;1.10;0.90;;;23.50;96.70;;;;;;4984753;23;20501;-89
2023/08/07 06:00:35;;;;;;;1.10;0.83;;;23.40;96.60;;;;;;4968699;23;20559;-89
2023/08/07 06:05:44;;;;;;;1.00;0.80;;;23.40;96.60;;;;;;4969362;28;20471;-89
2023/08/07 06:08:23;;;;;;;1.30;1.00;;;23.40;97.00;;;;;;4970412;29;20501;-89
2023/08/07 06:13:18;;;;;;;1.10;0.87;;;23.50;96.60;;;;;;5012594;23;20487;-89
2023/08/07 06:15:54;;;;;;;1.00;0.80;;;23.40;96.50;;;;;;5000317;23;20760;-89
2023/08/07 06:18:21;;;;;;;1.20;0.90;;;23.50;96.50;;;;;;4952585;29;20458;-84
2023/08/07 06:20:47;;;;;;;1.10;0.80;;;23.40;96.50;;;;;;4958082;28;20449;-90
2023/08/07 06:23:14;;;;;;;1.10;0.90;;;23.40;96.50;;;;;;4958066;28;20446;-87
2023/08/07 06:25:43;;;;;;;1.10;0.90;;;23.40;96.60;;;;;;4957647;28;20449;-90
2023/08/07 06:28:10;;;;;;;3.23;1.33;;;23.40;96.50;;;;;;4958704;28;20449;-91
2023/08/07 06:30:37;;;;;;;2.07;1.17;;;23.40;96.20;;;;;;4958379;29;20580;-90
2023/08/07 06:33:04;;;;;;;1.53;0.93;;;23.40;96.40;;;;;;4958271;28;20453;-89
2023/08/07 06:35:30;;;;;;;1.00;0.80;;;23.40;96.50;;;;;;4958682;28;20451;-91
2023/08/07 06:37:57;;;;;;;1.20;0.90;;;23.40;96.50;;;;;;4958432;28;20937;-91
2023/08/07 06:40:24;;;;;;;1.20;1.07;;;23.40;96.50;;;;;;4958402;28;20543;-91
2023/08/07 06:42:54;;;;;;;1.10;0.80;;;23.40;96.50;;;;;;4958174;29;20476;-90
2023/08/07 06:45:24;;;;;;;1.10;0.90;;;23.50;96.60;;;;;;4958273;28;20488;-91
2023/08/07 06:47:50;;;;;;;1.10;0.90;;;23.50;96.60;;;;;;4958081;28;20477;-91
2023/08/07 06:50:17;;;;;;;1.30;0.90;;;23.40;96.60;;;;;;4958100;29;20579;-91
2023/08/07 06:52:44;;;;;;;1.10;0.83;;;23.50;96.60;;;;;;4958093;29;20540;-91
2023/08/07 06:55:11;;;;;;;1.10;0.93;;;23.50;96.80;;;;;;4957972;28;20465;-91
2023/08/07 06:57:38;;;;;;;1.20;0.97;;;23.50;96.70;;;;;;4957870;29;20444;-91
2023/08/07 07:00:07;;;;;;;1.10;0.80;;;23.50;96.70;;;;;;4957913;29;20467;-91
2023/08/07 07:02:34;;;;;;;1.10;0.90;;;23.50;96.70;;;;;;4957981;29;20456;-90
2023/08/07 07:05:01;;;;;;;1.00;0.70;;;23.50;96.70;;;;;;4957832;29;20446;-90
2023/08/07 07:07:28;;;;;;;1.20;0.90;;;23.50;96.70;;;;;;4957790;29;20504;-90
2023/08/07 07:09:55;;;;;;;1.00;0.80;;;23.50;96.70;;;;;;4957677;29;20490;-90
2023/08/07 07:12:21;;;;;;;1.20;0.80;;;23.50;96.80;;;;;;4958079;29;20922;-91
2023/08/07 07:14:48;;;;;;;1.10;0.90;;;23.50;96.80;;;;;;4957613;28;20530;-91
2023/08/07 07:17:16;;;;;;;1.77;0.80;;;23.50;96.80;;;;;;4957535;28;20481;-90
2023/08/07 07:19:43;;;;;;;1.20;1.00;;;23.50;96.70;;;;;;4957638;29;20445;-91
2023/08/07 07:22:10;;;;;;;1.10;0.90;;;23.50;96.80;;;;;;4957653;29;20449;-90
2023/08/07 07:24:37;;;;;;;1.33;0.90;;;23.50;96.80;;;;;;4957275;28;20458;-91
2023/08/07 07:27:04;;;;;;;2.70;1.40;;;23.50;96.60;;;;;;4956273;28;20445;-92
2023/08/07 07:29:40;;;;;;;1.47;0.90;;;23.50;96.70;;;;;;4961315;28;20557;-88
2023/08/07 07:32:23;;;;;;;1.40;0.90;;;23.50;96.70;;;;;;4964814;28;20445;-88
2023/08/07 07:34:50;;;;;;;1.93;0.80;;;23.50;96.60;;;;;;4957466;28;20441;-89
2023/08/07 07:37:16;;;;;;;3.33;0.90;;;23.50;96.70;;;;;;4956968;28;20442;-87
2023/08/07 07:39:43;;;;;;;1.03;0.90;;;23.50;96.70;;;;;;4957443;28;21024;-86
2023/08/07 07:42:10;;;;;;;1.00;0.90;;;23.40;96.70;;;;;;4957397;28;20441;-85
2023/08/07 07:44:38;;;;;;;2.50;1.10;;;23.40;96.70;;;;;;4956478;28;20445;-85
2023/08/07 07:47:06;;;;;;;2.50;1.80;;;23.50;96.30;;;;;;4955714;28;20476;-84
2023/08/07 07:49:34;;;;;;;1.30;1.10;;;23.40;96.00;;;;;;4955736;28;20483;-84
2023/08/07 07:52:01;;;;;;;2.17;1.17;;;23.40;95.90;;;;;;4955915;28;20442;-84
2023/08/07 07:54:29;;;;;;;2.07;1.20;;;23.30;95.80;;;;;;4955987;28;20454;-85
2023/08/07 07:56:56;;;;;;;2.40;1.30;;;23.30;95.90;;;;;;4956149;29;20444;-87
2023/08/07 07:59:23;;;;;;;5.33;1.43;;;23.20;96.00;;;;;;4955695;28;20460;-89
2023/08/07 08:01:51;;;;;;;2.03;1.30;;;23.10;95.90;;;;;;4956757;28;20451;-85
2023/08/07 08:04:19;;;;;;;1.70;1.40;;;23.10;96.00;;;;;;4956797;28;20532;-87
2023/08/07 08:06:48;;;;;;;2.47;1.33;;;23.10;96.10;;;;;;4956641;28;20444;-84
2023/08/07 08:09:15;;;;;;;1.10;0.90;;;23.10;96.20;;;;;;4956688;28;20481;-86
2023/08/07 08:11:42;;;;;;;1.70;1.20;;;23.10;96.30;;;;;;4956745;28;20805;-88
2023/08/07 08:14:08;;;;;;;2.20;1.23;;;23.10;96.50;;;;;;4956435;28;20955;-91
2023/08/07 08:16:35;;;;;;;1.67;1.40;;;23.10;96.60;;;;;;4956282;28;20503;-87
2023/08/07 08:19:03;;;;;;;1.23;1.13;;;23.20;96.70;;;;;;4956434;28;20444;-89
2023/08/07 08:21:30;;;;;;;1.20;0.90;;;23.20;96.80;;;;;;4956370;28;20447;-85
2023/08/07 08:23:58;;;;;;;1.40;1.10;;;23.20;96.80;;;;;;4956516;28;20447;-86
2023/08/07 08:26:25;;;;;;;1.70;1.00;;;23.20;96.70;;;;;;4955698;28;20518;-85
2023/08/07 08:28:52;;;;;;;1.27;1.07;;;23.20;97.20;;;;;;4956285;28;20460;-89
2023/08/07 08:31:21;;;;;;;1.40;1.20;;;23.20;96.80;;;;;;4956136;28;20496;-88
2023/08/07 08:33:47;;;;;;;3.20;1.30;;;23.20;96.80;;;;;;4956222;28;20446;-85
2023/08/07 08:36:14;;;;;;;1.90;0.83;;;23.20;96.90;;;;;;4956331;28;20445;-86
2023/08/07 08:38:41;;;;;;;1.60;1.13;;;23.30;97.10;;;;;;4956433;28;20446;-88
2023/08/07 08:41:10;;;;;;;3.00;1.20;;;23.30;96.90;;;;;;4956438;28;20449;-88
2023/08/07 08:43:38;;;;;;;2.60;1.07;;;23.30;96.90;;;;;;4956171;28;20445;-85
2023/08/07 08:46:06;;;;;;;2.50;1.00;;;23.30;96.80;;;;;;4956324;28;20512;-88
2023/08/07 08:48:36;;;;;;;1.20;0.93;;;23.30;96.90;;;;;;4955868;28;20468;-86
2023/08/07 08:51:04;;;;;;;1.20;0.90;;;23.30;96.90;;;;;;4956166;28;20996;-88
2023/08/07 08:53:31;;;;;;;1.30;0.80;;;23.30;96.80;;;;;;4956092;28;20453;-85
2023/08/07 08:55:58;;;;;;;2.90;1.30;;;23.30;96.90;;;;;;4956067;28;20867;-92
2023/08/07 08:58:26;;;;;;;1.40;0.90;;;23.40;97.00;;;;;;4956168;28;20440;-87
2023/08/07 09:00:53;;;;;;;1.40;1.10;;;23.40;97.00;;;;;;4955656;28;21116;-85
2023/08/07 09:03:21;;;;;;;1.13;0.90;;;23.40;97.00;;;;;;4955709;28;20533;-92
2023/08/07 09:05:49;;;;;;;1.30;1.10;;;23.40;97.00;;;;;;4955969;28;20434;-88
2023/08/07 09:08:17;;;;;;;1.40;1.20;;;23.40;97.00;;;;;;4955700;28;20440;-86
2023/08/07 09:10:44;;;;;;;1.50;1.00;;;23.40;97.00;;;;;;4955534;28;20500;-87
2023/08/07 09:13:15;;;;;;;1.70;1.23;;;23.40;97.00;;;;;;4955723;28;20799;-90
2023/08/07 09:15:47;;;;;;;2.50;1.10;;;23.50;96.90;;;;;;4956014;28;20478;-93
2023/08/07 09:18:14;;;;;;;1.10;0.90;;;23.50;96.90;;;;;;4956539;28;20530;-91
2023/08/07 09:20:42;;;;;;;1.10;1.00;;;23.50;96.90;;;;;;4955920;28;20534;-91
2023/08/07 09:23:08;;;;;;;1.47;1.30;;;23.50;96.90;;;;;;4955869;28;20439;-93
2023/08/07 09:25:36;;;;;;;1.20;1.00;;;23.50;96.90;;;;;;4955665;28;20434;-88
2023/08/07 09:28:04;;;;;;;1.23;0.90;;;23.50;96.90;;;;;;4955719;28;20478;-91
2023/08/07 09:30:32;;;;;;;1.43;0.90;;;23.50;96.90;;;;;;4955820;29;20489;-91
2023/08/07 09:33:00;;;;;;;1.20;1.10;;;23.70;97.00;;;;;;4955665;28;20452;-93
2023/08/07 09:35:28;;;;;;;1.30;1.00;;;23.50;97.00;;;;;;4955303;28;20446;-92
2023/08/07 09:37:55;;;;;;;1.90;1.47;;;23.50;96.90;;;;;;4956553;28;20450;-88
2023/08/07 09:40:22;;;;;;;2.60;0.90;;;23.60;97.00;;;;;;4959623;29;20446;-91
2023/08/07 09:42:52;;;;;;;1.37;1.27;;;23.60;97.00;;;;;;4959504;28;20449;-90
2023/08/07 09:45:24;;;;;;;1.23;1.13;;;23.60;97.20;;;;;;4959643;28;20440;-90
2023/08/07 09:48:03;;;;;;;1.10;0.90;;;23.60;97.00;;;;;;4959942;28;20461;-95
2023/08/07 09:50:31;;;;;;;1.47;0.97;;;23.60;96.80;;;;;;4959477;28;20498;-88
2023/08/07 09:53:01;;;;;;;1.30;1.07;;;23.60;96.80;;;;;;4959871;29;20523;-93
2023/08/07 09:55:28;;;;;;;1.70;1.33;;;23.60;97.00;;;;;;4959250;28;20941;-91
2023/08/07 09:57:55;;;;;;;2.50;1.00;;;23.60;97.00;;;;;;4959071;28;20438;-91
2023/08/07 10:00:22;;;;;;;1.50;1.03;;;23.60;96.90;;;;;;4959028;28;20475;-91
2023/08/07 10:02:50;;;;;;;2.80;1.37;;;23.60;97.00;;;;;;4959785;28;20505;-88
2023/08/07 10:05:22;;;;;;;1.20;1.10;;;23.60;97.00;;;;;;4958943;28;20438;-90
2023/08/07 10:07:50;;;;;;;1.43;1.10;;;23.70;97.00;;;;;;4957408;28;20453;-87
2023/08/07 10:10:18;;;;;;;1.40;1.17;;;23.70;97.00;;;;;;4957057;28;20488;-86
2023/08/07 10:12:47;;;;;;;1.03;0.80;;;23.60;96.90;;;;;;4958209;28;20460;-86
2023/08/07 10:15:15;;;;;;;1.40;1.10;;;23.60;97.00;;;;;;4958026;28;21319;-87
2023/08/07 10:17:43;;;;;;;3.20;1.57;;;23.60;97.00;;;;;;4958256;28;20519;-87
2023/08/07 10:20:11;;;;;;;1.73;1.20;;;23.70;97.10;;;;;;4958093;28;20468;-86
2023/08/07 10:22:39;;;;;;;1.33;1.03;;;23.70;97.10;;;;;;4957049;28;20951;-86
2023/08/07 10:25:08;;;;;;;2.53;1.10;;;23.70;97.10;;;;;;4956112;28;20808;-86
2023/08/07 10:27:37;;;;;;;1.40;1.00;;;23.70;97.00;;;;;;4956228;28;20482;-87
2023/08/07 10:30:08;;;;;;;1.10;0.90;;;23.70;97.10;;;;;;4955997;28;20492;-86
2023/08/07 10:32:36;;;;;;;1.50;0.90;;;23.80;97.10;;;;;;4956098;28;20452;-86
2023/08/07 10:35:05;;;;;;;1.13;1.00;;;23.80;97.10;;;;;;4956026;28;20510;-88
2023/08/07 10:37:41;;;;;;;1.37;1.10;;;23.80;97.20;;;;;;4956082;28;20449;-87
2023/08/07 10:40:10;;;;;;;1.30;0.97;;;23.80;97.10;;;;;;4956154;28;20446;-86
2023/08/07 10:42:57;;;;;;;1.53;1.30;;;23.80;97.00;;;;;;4956236;28;20532;-90
2023/08/07 10:45:24;;;;;;;1.40;1.27;;;23.80;97.00;;;;;;4957384;28;20545;-89
2023/08/07 10:48:07;;;;;;;1.43;1.20;;;23.80;97.00;;;;;;4958218;28;20562;-87
2023/08/07 10:50:36;;;;;;;1.60;1.30;;;23.90;97.00;;;;;;4957084;28;20488;-88
2023/08/07 10:53:04;;;;;;;1.60;1.10;;;23.90;97.10;;;;;;4957715;28;20452;-86
2023/08/07 10:55:45;;;;;;;2.07;1.30;;;23.90;97.00;;;;;;4957588;28;20469;-86
2023/08/07 10:58:24;;;;;;;1.40;1.07;;;23.90;97.10;;;;;;4957735;28;20428;-87
2023/08/07 11:00:51;;;;;;;1.93;1.10;;;23.90;97.00;;;;;;4957676;28;20440;-87
2023/08/07 11:03:26;;;;;;;1.33;1.00;;;24.00;97.10;;;;;;4957750;28;20448;-87
2023/08/07 11:05:53;;;;;;;2.27;1.10;;;23.90;97.10;;;;;;4957532;28;20444;-87
2023/08/07 11:08:24;;;;;;;2.03;1.20;;;24.00;97.10;;;;;;4958017;28;20444;-87
2023/08/07 11:10:52;;;;;;;1.53;1.00;;;24.00;97.10;;;;;;4957864;28;20489;-93
2023/08/07 11:13:19;;;;;;;1.10;0.93;;;24.00;97.20;;;;;;4957965;28;20497;-92
2023/08/07 11:15:47;;;;;;;1.63;1.20;;;24.00;97.10;;;;;;4957956;28;20473;-94
2023/08/07 11:18:16;;;;;;;1.10;0.80;;;24.00;97.10;;;;;;4957974;28;20462;-94
2023/08/07 11:20:43;;;;;;;1.10;0.80;;;24.00;97.00;;;;;;4958046;28;20450;-92
2023/08/07 11:23:10;;;;;;;1.70;1.07;;;24.10;97.10;;;;;;4957949;28;20544;-96
2023/08/07 11:25:39;;;;;;;2.13;1.20;;;24.00;97.00;;;;;;4957942;29;21001;-92
2023/08/07 11:28:06;;;;;;;1.40;1.27;;;24.10;97.20;;;;;;4958064;28;20445;-93
2023/08/07 11:30:33;;;;;;;1.20;1.03;;;24.10;97.10;;;;;;4957881;28;20514;-95
2023/08/07 11:33:00;;;;;;;1.60;1.40;;;24.10;97.10;;;;;;4957816;28;20542;-95
2023/08/07 11:35:26;;;;;;;1.20;1.00;;;24.10;97.00;;;;;;4957865;28;20449;-95
2023/08/07 11:37:54;;;;;;;1.20;1.10;;;24.10;97.00;;;;;;4957643;28;20457;-88
2023/08/07 11:40:21;;;;;;;1.50;1.00;;;24.10;97.10;;;;;;4957876;28;20506;-95
2023/08/07 11:42:49;;;;;;;2.07;1.10;;;24.10;97.10;;;;;;4957994;28;20430;-94
2023/08/07 11:45:16;;;;;;;2.27;1.30;;;24.10;97.00;;;;;;4957475;28;20523;-92
2023/08/07 11:47:43;;;;;;;1.17;1.03;;;24.10;97.10;;;;;;4957584;28;20461;-93
2023/08/07 11:50:11;;;;;;;1.40;1.23;;;24.10;97.10;;;;;;4957057;28;20448;-86
2023/08/07 11:52:40;;;;;;;2.77;1.50;;;24.10;97.10;;;;;;4956733;28;20448;-87
2023/08/07 11:55:09;;;;;;;1.23;1.13;;;24.10;97.00;;;;;;4956716;28;20546;-87
2023/08/07 11:57:38;;;;;;;1.83;1.40;;;24.10;97.00;;;;;;4956675;29;20453;-87
2023/08/07 12:00:12;;;;;;;2.13;1.33;;;24.10;97.00;;;;;;4956562;28;20442;-87
2023/08/07 12:02:42;;;;;;;1.30;1.00;;;24.10;97.00;;;;;;4955855;28;20464;-87
2023/08/07 12:05:10;;;;;;;1.27;1.00;;;24.10;97.00;;;;;;4956924;28;20438;-86
2023/08/07 12:07:37;;;;;;;1.20;1.10;;;24.10;96.90;;;;;;4956674;28;20501;-87
2023/08/07 12:10:07;;;;;;;1.10;0.90;;;24.10;97.00;;;;;;4956590;28;20598;-88
2023/08/07 12:12:35;;;;;;;1.10;0.90;;;24.10;96.90;;;;;;4956456;28;20485;-92
2023/08/07 12:15:02;;;;;;;1.37;1.27;;;24.10;96.90;;;;;;4956570;28;21003;-91
2023/08/07 12:17:33;;;;;;;2.80;1.30;;;24.10;97.00;;;;;;4956396;28;20463;-87
2023/08/07 12:20:00;;;;;;;1.40;1.10;;;24.00;96.80;;;;;;4956363;28;20439;-87
2023/08/07 12:22:29;;;;;;;1.00;0.83;;;24.00;96.80;;;;;;4956595;28;20450;-87
2023/08/07 12:24:55;;;;;;;1.43;1.30;;;24.10;96.90;;;;;;4956383;28;20930;-88
2023/08/07 12:27:22;;;;;;;1.93;1.20;;;24.10;96.90;;;;;;4956192;28;20450;-87
2023/08/07 12:29:49;;;;;;;1.37;1.10;;;24.10;96.90;;;;;;4956293;28;20443;-87
2023/08/07 12:32:16;;;;;;;1.10;0.90;;;24.10;97.00;;;;;;4955969;28;20524;-87
2023/08/07 12:34:44;;;;;;;1.50;1.40;;;24.10;96.90;;;;;;4956234;28;20475;-87
2023/08/07 12:37:11;;;;;;;1.60;1.00;;;24.10;96.80;;;;;;4956448;28;20785;-87
2023/08/07 12:39:38;;;;;;;1.20;1.00;;;24.10;97.20;;;;;;4955865;28;20440;-87
2023/08/07 12:42:06;;;;;;;1.20;1.03;;;24.10;97.00;;;;;;4956293;28;20470;-88
2023/08/07 12:44:32;;;;;;;1.40;1.30;;;24.10;97.10;;;;;;4955950;28;20507;-87
2023/08/07 12:46:59;;;;;;;1.60;1.40;;;24.10;97.10;;;;;;4956020;28;20458;-88
2023/08/07 12:49:26;;;;;;;1.33;1.23;;;24.10;97.10;;;;;;4955880;28;20434;-87
2023/08/07 12:51:56;;;;;;;1.20;0.90;;;24.10;97.00;;;;;;4955864;29;20493;-87
2023/08/07 12:54:23;;;;;;;1.33;1.10;;;24.10;97.10;;;;;;4956301;28;20794;-87
2023/08/07 12:56:50;;;;;;;1.50;1.27;;;24.10;97.20;;;;;;4956015;29;20448;-93
2023/08/07 12:59:17;;;;;;;1.63;1.07;;;24.20;97.30;;;;;;4956230;28;20446;-92
2023/08/07 13:01:44;;;;;;;1.33;1.03;;;24.20;97.20;;;;;;4956000;28;20445;-92
2023/08/07 13:04:14;;;;;;;2.50;1.03;;;24.20;97.10;;;;;;4956212;28;20929;-89
2023/08/07 13:06:41;;;;;;;1.27;1.10;;;24.20;97.10;;;;;;4956495;28;20802;-93
2023/08/07 13:09:09;;;;;;;1.40;1.20;;;24.20;97.20;;;;;;4956323;28;20555;-90
2023/08/07 13:11:36;;;;;;;1.40;1.20;;;24.20;97.10;;;;;;4955638;28;20560;-91
2023/08/07 13:14:05;;;;;;;1.80;1.30;;;24.20;97.10;;;;;;4955949;28;20447;-91
2023/08/07 13:16:31;;;;;;;1.93;0.97;;;24.20;97.00;;;;;;4955821;28;20508;-92
2023/08/07 13:18:58;;;;;;;2.30;1.40;;;24.20;96.90;;;;;;4955735;28;20542;-92
2023/08/07 13:21:25;;;;;;;1.30;1.20;;;24.10;96.80;;;;;;4956075;28;20468;-88
2023/08/07 13:23:52;;;;;;;1.20;1.00;;;24.10;97.00;;;;;;4955931;28;20445;-92
2023/08/07 13:26:20;;;;;;;1.40;1.20;;;24.10;97.30;;;;;;4955911;28;20540;-91
2023/08/07 13:28:47;;;;;;;1.10;1.00;;;24.20;96.90;;;;;;4956257;29;20522;-91
2023/08/07 13:31:14;;;;;;;2.00;1.40;;;24.20;96.80;;;;;;4955701;28;20477;-93
2023/08/07 13:33:40;;;;;;;1.20;0.90;;;24.20;96.90;;;;;;4955991;29;20460;-92
2023/08/07 13:36:10;;;;;;;1.20;1.10;;;24.20;97.00;;;;;;4956068;28;20498;-93
2023/08/07 13:38:38;;;;;;;2.33;1.30;;;24.20;96.90;;;;;;4956234;29;20517;-91
2023/08/07 13:41:05;;;;;;;1.20;0.90;;;24.20;96.90;;;;;;4955699;28;20540;-90
2023/08/07 13:43:33;;;;;;;1.30;1.10;;;24.20;96.90;;;;;;4955611;28;20437;-91
2023/08/07 13:46:01;;;;;;;1.10;1.00;;;24.20;96.80;;;;;;4955784;28;20445;-89
2023/08/07 13:48:28;;;;;;;1.33;1.13;;;24.10;96.80;;;;;;4955632;28;20502;-93